Terminal Aerodrome Forecast
Issued by NWS

Current Version | Previous Version | Graphics & Text | Print | Product List | Glossary On
Versions: 1 2 3 4 5 6 7 8 9 10 11 12 13 14 15 16 17 18 19 20 21 22 23 24 25 26 27 28 29
000
FTUS41 KRLX 210900 AAA
TAFCKB
TAF AMD
KCKB 210948Z 2110/2206 19004KT P6SM SCT040
     FM211200 20005KT P6SM BKN035
     FM211400 22009KT 6SM SHRA BR VCTS BKN035CB
     FM211700 23009KT 6SM SHRA BR VCTS BKN025CB
     FM212100 24009KT P6SM BKN040
     FM220000 26005KT P6SM BKN040=

USA.gov is the U.S. government's official web portal to all federal, state and local government web resources and services.